Accueil
METAR-TAF:

METAR-TAF

Aéroports :

Laconia Municipal Airport

Laconia, New Hampshire, États-Unis

latitude: 43-34N, longitude: 071-25W, altitude: 166 m

Observation

Le bulletin a été fait il y a 50 minutes, à 17:56 UTC
Vent 10 kt de ouest avec des rafales jusqu'à 19 kt
Température 3°C
Humidité 87%
Pression 986 hPa
Visibilité: 9.7 km
Quelques nuages à une hauteur de 900 ft
Nuages fragmentés à une hauteur de 2600 ft
Ciel couvert à une hauteur de 4200 ft
pluie faible, brume

METAR: KLCI 101756Z AUTO 27010G19KT 6SM -RA BR FEW009 BKN026 OVC042 03/01 A2911 RMK AO2 RAB20 SLP862 P0001 60001 T00280011 10056 20022 53015

Heure: 14:46 (18:46 UTC)


TAF: absent

Observations et prévisions météorologiques de plus de 4000 aéroports (messages METAR et TAF).

Les stations disponibles sont représentées par des disques jaunes et rouges sur la carte.

Passer la souris dessus pour voir le nom de la station.

Cliquer dessus pour voir les observations et prévisions météorologiques.

Pour changer de carte: cliquez sur les boutons verts avec une croix noire pour zoomer, sur le bouton vert avec un tiret pour effectuer un zoom arrière, ou sur les flèches vertes pour les cartes adjacentes.


METAR-TAF: